sensor_id;sensor_type;location;lat;lon;timestamp;P1;durP1;ratioP1;P2;durP2;ratioP2
63342;SDS011;49465;57.664;39.686;2023-08-30T00:02:00;7.57;;;3.70;;
63342;SDS011;49465;57.664;39.686;2023-08-30T00:04:38;6.32;;;3.15;;
63342;SDS011;49465;57.664;39.686;2023-08-30T00:07:21;5.90;;;3.50;;
63342;SDS011;49465;57.664;39.686;2023-08-30T00:12:38;5.88;;;3.60;;
63342;SDS011;49465;57.664;39.686;2023-08-30T00:15:08;6.45;;;3.58;;
63342;SDS011;49465;57.664;39.686;2023-08-30T00:17:46;5.55;;;3.40;;
63342;SDS011;49465;57.664;39.686;2023-08-30T00:20:23;6.40;;;3.72;;
63342;SDS011;49465;57.664;39.686;2023-08-30T00:23:04;4.80;;;3.70;;
63342;SDS011;49465;57.664;39.686;2023-08-30T00:25:44;6.57;;;3.95;;
63342;SDS011;49465;57.664;39.686;2023-08-30T00:28:23;4.45;;;3.70;;
63342;SDS011;49465;57.664;39.686;2023-08-30T00:31:00;5.95;;;3.85;;
63342;SDS011;49465;57.664;39.686;2023-08-30T00:33:40;8.05;;;3.70;;
63342;SDS011;49465;57.664;39.686;2023-08-30T00:36:18;4.78;;;3.70;;
63342;SDS011;49465;57.664;39.686;2023-08-30T00:38:55;8.13;;;3.85;;
63342;SDS011;49465;57.664;39.686;2023-08-30T00:41:32;6.28;;;3.60;;
63342;SDS011;49465;57.664;39.686;2023-08-30T00:44:06;7.50;;;3.97;;
63342;SDS011;49465;57.664;39.686;2023-08-30T00:46:44;5.50;;;3.72;;
63342;SDS011;49465;57.664;39.686;2023-08-30T00:49:16;6.28;;;3.92;;
63342;SDS011;49465;57.664;39.686;2023-08-30T00:51:54;6.38;;;3.88;;
63342;SDS011;49465;57.664;39.686;2023-08-30T00:54:46;7.00;;;4.05;;
63342;SDS011;49465;57.664;39.686;2023-08-30T00:57:18;7.53;;;4.38;;
63342;SDS011;49465;57.664;39.686;2023-08-30T00:59:53;6.32;;;4.13;;
63342;SDS011;49465;57.664;39.686;2023-08-30T01:02:30;6.07;;;3.63;;
63342;SDS011;49465;57.664;39.686;2023-08-30T01:05:05;4.57;;;3.72;;
63342;SDS011;49465;57.664;39.686;2023-08-30T01:07:39;5.25;;;4.13;;
63342;SDS011;49465;57.664;39.686;2023-08-30T01:10:17;8.82;;;5.63;;
63342;SDS011;49465;57.664;39.686;2023-08-30T01:12:57;6.32;;;4.40;;
63342;SDS011;49465;57.664;39.686;2023-08-30T01:15:37;5.85;;;4.45;;
63342;SDS011;49465;57.664;39.686;2023-08-30T01:18:09;7.90;;;4.03;;
63342;SDS011;49465;57.664;39.686;2023-08-30T01:20:43;5.45;;;4.50;;
63342;SDS011;49465;57.664;39.686;2023-08-30T01:28:51;6.80;;;4.40;;
63342;SDS011;49465;57.664;39.686;2023-08-30T01:36:44;6.80;;;4.22;;
63342;SDS011;49465;57.664;39.686;2023-08-30T01:39:16;6.97;;;4.68;;
63342;SDS011;49465;57.664;39.686;2023-08-30T01:41:54;6.20;;;4.30;;
63342;SDS011;49465;57.664;39.686;2023-08-30T01:44:35;7.57;;;4.50;;
63342;SDS011;49465;57.664;39.686;2023-08-30T01:47:10;7.35;;;4.90;;
63342;SDS011;49465;57.664;39.686;2023-08-30T01:49:51;5.65;;;4.47;;
63342;SDS011;49465;57.664;39.686;2023-08-30T01:52:39;6.47;;;4.35;;
63342;SDS011;49465;57.664;39.686;2023-08-30T01:55:17;6.32;;;4.45;;
63342;SDS011;49465;57.664;39.686;2023-08-30T01:58:05;6.90;;;4.32;;
63342;SDS011;49465;57.664;39.686;2023-08-30T02:00:46;6.35;;;4.43;;
63342;SDS011;49465;57.664;39.686;2023-08-30T02:03:18;7.43;;;5.03;;
63342;SDS011;49465;57.664;39.686;2023-08-30T02:06:13;6.28;;;4.45;;
63342;SDS011;49465;57.664;39.686;2023-08-30T02:08:58;8.52;;;4.88;;
63342;SDS011;49465;57.664;39.686;2023-08-30T02:11:52;5.90;;;4.47;;
63342;SDS011;49465;57.664;39.686;2023-08-30T02:14:28;6.57;;;4.50;;
63342;SDS011;49465;57.664;39.686;2023-08-30T02:17:05;6.72;;;4.70;;
63342;SDS011;49465;57.664;39.686;2023-08-30T02:19:37;6.40;;;4.35;;
63342;SDS011;49465;57.664;39.686;2023-08-30T02:22:21;7.28;;;4.68;;
63342;SDS011;49465;57.664;39.686;2023-08-30T02:24:59;8.05;;;4.57;;
63342;SDS011;49465;57.664;39.686;2023-08-30T02:27:38;5.97;;;4.47;;
63342;SDS011;49465;57.664;39.686;2023-08-30T02:30:19;5.95;;;4.43;;
63342;SDS011;49465;57.664;39.686;2023-08-30T02:33:01;6.13;;;4.55;;
63342;SDS011;49465;57.664;39.686;2023-08-30T02:35:44;7.75;;;4.57;;
63342;SDS011;49465;57.664;39.686;2023-08-30T02:38:18;8.30;;;4.60;;
63342;SDS011;49465;57.664;39.686;2023-08-30T02:40:45;6.93;;;4.20;;
63342;SDS011;49465;57.664;39.686;2023-08-30T02:43:28;7.35;;;4.55;;
63342;SDS011;49465;57.664;39.686;2023-08-30T02:46:03;8.93;;;5.05;;
63342;SDS011;49465;57.664;39.686;2023-08-30T02:48:32;7.82;;;4.95;;
63342;SDS011;49465;57.664;39.686;2023-08-30T02:51:12;9.20;;;4.97;;
63342;SDS011;49465;57.664;39.686;2023-08-30T02:53:47;10.40;;;5.47;;
63342;SDS011;49465;57.664;39.686;2023-08-30T02:56:19;14.38;;;5.13;;
63342;SDS011;49465;57.664;39.686;2023-08-30T02:58:56;11.20;;;5.53;;
63342;SDS011;49465;57.664;39.686;2023-08-30T03:01:31;11.50;;;5.63;;
63342;SDS011;49465;57.664;39.686;2023-08-30T03:04:11;10.60;;;5.50;;
63342;SDS011;49465;57.664;39.686;2023-08-30T03:06:48;10.25;;;5.70;;
63342;SDS011;49465;57.664;39.686;2023-08-30T03:09:21;9.00;;;5.20;;
63342;SDS011;49465;57.664;39.686;2023-08-30T03:11:58;10.80;;;5.55;;
63342;SDS011;49465;57.664;39.686;2023-08-30T03:14:40;12.02;;;5.65;;
63342;SDS011;49465;57.664;39.686;2023-08-30T03:17:17;11.10;;;5.90;;
63342;SDS011;49465;57.664;39.686;2023-08-30T03:19:50;9.13;;;5.75;;
63342;SDS011;49465;57.664;39.686;2023-08-30T03:22:20;7.70;;;5.50;;
63342;SDS011;49465;57.664;39.686;2023-08-30T03:24:58;11.45;;;6.00;;
63342;SDS011;49465;57.664;39.686;2023-08-30T03:27:36;12.10;;;6.22;;
63342;SDS011;49465;57.664;39.686;2023-08-30T03:30:08;12.75;;;6.93;;
63342;SDS011;49465;57.664;39.686;2023-08-30T03:32:41;9.23;;;6.57;;
63342;SDS011;49465;57.664;39.686;2023-08-30T03:35:18;11.73;;;6.75;;
63342;SDS011;49465;57.664;39.686;2023-08-30T03:37:49;10.63;;;6.80;;
63342;SDS011;49465;57.664;39.686;2023-08-30T03:40:24;9.98;;;6.50;;
63342;SDS011;49465;57.664;39.686;2023-08-30T03:43:05;10.98;;;6.70;;
63342;SDS011;49465;57.664;39.686;2023-08-30T03:45:40;11.85;;;7.25;;
63342;SDS011;49465;57.664;39.686;2023-08-30T03:48:11;13.68;;;6.72;;
63342;SDS011;49465;57.664;39.686;2023-08-30T03:50:44;12.38;;;7.20;;
63342;SDS011;49465;57.664;39.686;2023-08-30T03:53:13;12.25;;;7.63;;
63342;SDS011;49465;57.664;39.686;2023-08-30T03:55:42;14.38;;;7.57;;
63342;SDS011;49465;57.664;39.686;2023-08-30T03:58:12;14.27;;;7.82;;
63342;SDS011;49465;57.664;39.686;2023-08-30T04:00:49;12.07;;;7.45;;
63342;SDS011;49465;57.664;39.686;2023-08-30T04:03:20;10.88;;;7.30;;
63342;SDS011;49465;57.664;39.686;2023-08-30T04:06:01;11.90;;;7.28;;
63342;SDS011;49465;57.664;39.686;2023-08-30T04:08:36;12.43;;;7.30;;
63342;SDS011;49465;57.664;39.686;2023-08-30T04:11:11;13.25;;;7.30;;
63342;SDS011;49465;57.664;39.686;2023-08-30T04:13:48;13.52;;;7.75;;
63342;SDS011;49465;57.664;39.686;2023-08-30T04:16:20;10.75;;;7.32;;
63342;SDS011;49465;57.664;39.686;2023-08-30T04:18:52;11.43;;;7.13;;
63342;SDS011;49465;57.664;39.686;2023-08-30T04:21:26;10.57;;;6.70;;
63342;SDS011;49465;57.664;39.686;2023-08-30T04:24:06;12.93;;;7.13;;
63342;SDS011;49465;57.664;39.686;2023-08-30T04:26:39;10.57;;;7.07;;
63342;SDS011;49465;57.664;39.686;2023-08-30T04:29:20;10.85;;;6.75;;
63342;SDS011;49465;57.664;39.686;2023-08-30T04:31:54;10.63;;;6.40;;
63342;SDS011;49465;57.664;39.686;2023-08-30T04:34:28;10.02;;;5.90;;
63342;SDS011;49465;57.664;39.686;2023-08-30T04:37:00;11.85;;;6.53;;
63342;SDS011;49465;57.664;39.686;2023-08-30T04:39:32;9.00;;;6.38;;
63342;SDS011;49465;57.664;39.686;2023-08-30T04:42:04;9.55;;;6.25;;
63342;SDS011;49465;57.664;39.686;2023-08-30T04:44:39;9.25;;;6.10;;
63342;SDS011;49465;57.664;39.686;2023-08-30T04:47:14;10.90;;;5.90;;
63342;SDS011;49465;57.664;39.686;2023-08-30T04:49:52;8.10;;;5.53;;
63342;SDS011;49465;57.664;39.686;2023-08-30T04:52:23;8.32;;;5.82;;
63342;SDS011;49465;57.664;39.686;2023-08-30T04:54:52;8.95;;;6.10;;
63342;SDS011;49465;57.664;39.686;2023-08-30T04:57:27;8.35;;;5.93;;
63342;SDS011;49465;57.664;39.686;2023-08-30T05:00:02;10.10;;;6.30;;
63342;SDS011;49465;57.664;39.686;2023-08-30T05:02:37;9.55;;;5.88;;
63342;SDS011;49465;57.664;39.686;2023-08-30T05:05:08;11.10;;;5.75;;
63342;SDS011;49465;57.664;39.686;2023-08-30T05:07:38;10.38;;;5.95;;
63342;SDS011;49465;57.664;39.686;2023-08-30T05:10:08;9.23;;;5.45;;
63342;SDS011;49465;57.664;39.686;2023-08-30T05:12:51;6.72;;;5.07;;
63342;SDS011;49465;57.664;39.686;2023-08-30T05:15:26;7.47;;;5.20;;
63342;SDS011;49465;57.664;39.686;2023-08-30T05:18:00;8.90;;;5.20;;
63342;SDS011;49465;57.664;39.686;2023-08-30T05:20:33;7.22;;;5.05;;
63342;SDS011;49465;57.664;39.686;2023-08-30T05:22:59;6.47;;;4.63;;
63342;SDS011;49465;57.664;39.686;2023-08-30T05:25:37;8.05;;;4.85;;
63342;SDS011;49465;57.664;39.686;2023-08-30T05:28:09;7.93;;;4.95;;
63342;SDS011;49465;57.664;39.686;2023-08-30T05:30:42;7.45;;;4.28;;
63342;SDS011;49465;57.664;39.686;2023-08-30T05:33:19;8.75;;;4.80;;
63342;SDS011;49465;57.664;39.686;2023-08-30T05:35:50;7.40;;;5.10;;
63342;SDS011;49465;57.664;39.686;2023-08-30T05:38:29;7.32;;;5.00;;
63342;SDS011;49465;57.664;39.686;2023-08-30T05:41:04;8.90;;;5.43;;
63342;SDS011;49465;57.664;39.686;2023-08-30T05:43:39;7.60;;;5.07;;
63342;SDS011;49465;57.664;39.686;2023-08-30T05:46:17;7.57;;;4.88;;
63342;SDS011;49465;57.664;39.686;2023-08-30T05:48:49;8.50;;;4.85;;
63342;SDS011;49465;57.664;39.686;2023-08-30T05:51:24;5.80;;;4.45;;
63342;SDS011;49465;57.664;39.686;2023-08-30T05:53:59;5.22;;;4.10;;
63342;SDS011;49465;57.664;39.686;2023-08-30T05:56:31;6.78;;;4.10;;
63342;SDS011;49465;57.664;39.686;2023-08-30T05:59:03;6.30;;;4.10;;
63342;SDS011;49465;57.664;39.686;2023-08-30T06:01:47;4.82;;;4.13;;
63342;SDS011;49465;57.664;39.686;2023-08-30T06:04:16;5.03;;;4.20;;
63342;SDS011;49465;57.664;39.686;2023-08-30T06:06:48;5.10;;;3.88;;
63342;SDS011;49465;57.664;39.686;2023-08-30T06:09:25;7.15;;;4.40;;
63342;SDS011;49465;57.664;39.686;2023-08-30T06:11:56;5.55;;;4.10;;
63342;SDS011;49465;57.664;39.686;2023-08-30T06:14:28;5.05;;;4.05;;
63342;SDS011;49465;57.664;39.686;2023-08-30T06:17:00;5.40;;;3.85;;
63342;SDS011;49465;57.664;39.686;2023-08-30T06:19:30;5.57;;;4.05;;
63342;SDS011;49465;57.664;39.686;2023-08-30T06:22:02;5.30;;;3.95;;
63342;SDS011;49465;57.664;39.686;2023-08-30T06:24:41;5.22;;;4.10;;
63342;SDS011;49465;57.664;39.686;2023-08-30T06:27:11;5.35;;;3.85;;
63342;SDS011;49465;57.664;39.686;2023-08-30T06:29:40;5.22;;;3.75;;
63342;SDS011;49465;57.664;39.686;2023-08-30T06:32:07;4.75;;;3.70;;
63342;SDS011;49465;57.664;39.686;2023-08-30T06:34:45;5.30;;;3.80;;
63342;SDS011;49465;57.664;39.686;2023-08-30T06:37:17;4.28;;;3.67;;
63342;SDS011;49465;57.664;39.686;2023-08-30T06:39:49;5.30;;;3.72;;
63342;SDS011;49465;57.664;39.686;2023-08-30T06:42:24;7.03;;;3.95;;
63342;SDS011;49465;57.664;39.686;2023-08-30T06:45:06;4.15;;;3.60;;
63342;SDS011;49465;57.664;39.686;2023-08-30T06:47:44;5.05;;;3.30;;
63342;SDS011;49465;57.664;39.686;2023-08-30T06:50:22;4.38;;;3.55;;
63342;SDS011;49465;57.664;39.686;2023-08-30T06:52:48;5.38;;;3.40;;
63342;SDS011;49465;57.664;39.686;2023-08-30T06:55:21;5.88;;;3.78;;
63342;SDS011;49465;57.664;39.686;2023-08-30T06:57:55;8.02;;;3.80;;
63342;SDS011;49465;57.664;39.686;2023-08-30T07:00:30;4.72;;;3.55;;
63342;SDS011;49465;57.664;39.686;2023-08-30T07:03:02;5.65;;;3.47;;
63342;SDS011;49465;57.664;39.686;2023-08-30T07:05:32;6.07;;;3.75;;
63342;SDS011;49465;57.664;39.686;2023-08-30T07:08:06;4.25;;;3.20;;
63342;SDS011;49465;57.664;39.686;2023-08-30T07:10:33;4.68;;;3.70;;
63342;SDS011;49465;57.664;39.686;2023-08-30T07:13:07;6.13;;;3.33;;
63342;SDS011;49465;57.664;39.686;2023-08-30T07:15:45;3.65;;;3.05;;
63342;SDS011;49465;57.664;39.686;2023-08-30T07:18:26;5.60;;;3.40;;
63342;SDS011;49465;57.664;39.686;2023-08-30T07:20:58;5.55;;;3.10;;
63342;SDS011;49465;57.664;39.686;2023-08-30T07:23:31;4.97;;;3.33;;
63342;SDS011;49465;57.664;39.686;2023-08-30T07:26:11;4.80;;;3.15;;
63342;SDS011;49465;57.664;39.686;2023-08-30T07:28:49;4.45;;;3.50;;
63342;SDS011;49465;57.664;39.686;2023-08-30T07:31:17;4.07;;;3.28;;
63342;SDS011;49465;57.664;39.686;2023-08-30T07:33:55;5.35;;;3.75;;
63342;SDS011;49465;57.664;39.686;2023-08-30T07:36:30;5.55;;;4.50;;
63342;SDS011;49465;57.664;39.686;2023-08-30T07:39:05;7.53;;;4.03;;
63342;SDS011;49465;57.664;39.686;2023-08-30T07:41:34;5.80;;;3.83;;
63342;SDS011;49465;57.664;39.686;2023-08-30T07:44:04;9.23;;;3.80;;
63342;SDS011;49465;57.664;39.686;2023-08-30T07:46:39;5.82;;;3.83;;
63342;SDS011;49465;57.664;39.686;2023-08-30T07:49:11;4.60;;;3.30;;
63342;SDS011;49465;57.664;39.686;2023-08-30T07:51:40;3.45;;;2.78;;
63342;SDS011;49465;57.664;39.686;2023-08-30T07:54:18;4.47;;;3.00;;
63342;SDS011;49465;57.664;39.686;2023-08-30T07:56:53;6.55;;;4.22;;
63342;SDS011;49465;57.664;39.686;2023-08-30T07:59:32;7.65;;;5.00;;
63342;SDS011;49465;57.664;39.686;2023-08-30T08:02:06;9.07;;;4.95;;
63342;SDS011;49465;57.664;39.686;2023-08-30T08:04:39;13.43;;;5.78;;
63342;SDS011;49465;57.664;39.686;2023-08-30T08:07:26;11.90;;;7.32;;
63342;SDS011;49465;57.664;39.686;2023-08-30T08:09:54;10.93;;;7.43;;
63342;SDS011;49465;57.664;39.686;2023-08-30T08:12:39;10.02;;;6.78;;
63342;SDS011;49465;57.664;39.686;2023-08-30T08:15:19;9.82;;;6.75;;
63342;SDS011;49465;57.664;39.686;2023-08-30T08:17:48;9.85;;;6.32;;
63342;SDS011;49465;57.664;39.686;2023-08-30T08:20:20;10.00;;;6.63;;
63342;SDS011;49465;57.664;39.686;2023-08-30T08:22:52;9.32;;;6.82;;
63342;SDS011;49465;57.664;39.686;2023-08-30T08:25:27;9.95;;;7.20;;
63342;SDS011;49465;57.664;39.686;2023-08-30T08:28:02;10.75;;;6.80;;
63342;SDS011;49465;57.664;39.686;2023-08-30T08:30:35;11.00;;;6.88;;
63342;SDS011;49465;57.664;39.686;2023-08-30T08:33:10;12.50;;;7.50;;
63342;SDS011;49465;57.664;39.686;2023-08-30T08:35:51;9.57;;;7.75;;
63342;SDS011;49465;57.664;39.686;2023-08-30T08:38:20;11.25;;;7.13;;
63342;SDS011;49465;57.664;39.686;2023-08-30T08:41:00;10.88;;;7.28;;
63342;SDS011;49465;57.664;39.686;2023-08-30T08:43:33;8.77;;;6.32;;
63342;SDS011;49465;57.664;39.686;2023-08-30T08:46:09;10.18;;;6.88;;
63342;SDS011;49465;57.664;39.686;2023-08-30T08:49:01;9.10;;;6.15;;
63342;SDS011;49465;57.664;39.686;2023-08-30T08:51:42;7.55;;;5.60;;
63342;SDS011;49465;57.664;39.686;2023-08-30T08:54:17;9.77;;;6.45;;
63342;SDS011;49465;57.664;39.686;2023-08-30T08:56:57;18.30;;;5.85;;
63342;SDS011;49465;57.664;39.686;2023-08-30T08:59:32;8.05;;;6.00;;
63342;SDS011;49465;57.664;39.686;2023-08-30T09:02:12;7.90;;;5.72;;
63342;SDS011;49465;57.664;39.686;2023-08-30T09:04:54;7.65;;;5.20;;
63342;SDS011;49465;57.664;39.686;2023-08-30T09:07:33;7.13;;;5.40;;
63342;SDS011;49465;57.664;39.686;2023-08-30T09:10:16;8.30;;;5.53;;
63342;SDS011;49465;57.664;39.686;2023-08-30T09:12:51;6.85;;;5.03;;
63342;SDS011;49465;57.664;39.686;2023-08-30T09:15:32;8.48;;;5.63;;
63342;SDS011;49465;57.664;39.686;2023-08-30T09:18:02;6.28;;;4.82;;
63342;SDS011;49465;57.664;39.686;2023-08-30T09:20:28;7.63;;;5.07;;
63342;SDS011;49465;57.664;39.686;2023-08-30T09:23:15;7.03;;;5.47;;
63342;SDS011;49465;57.664;39.686;2023-08-30T09:25:57;8.60;;;5.20;;
63342;SDS011;49465;57.664;39.686;2023-08-30T09:28:29;8.95;;;5.55;;
63342;SDS011;49465;57.664;39.686;2023-08-30T09:31:16;8.00;;;5.55;;
63342;SDS011;49465;57.664;39.686;2023-08-30T09:33:51;6.80;;;5.05;;
63342;SDS011;49465;57.664;39.686;2023-08-30T09:36:35;7.05;;;5.13;;
63342;SDS011;49465;57.664;39.686;2023-08-30T09:41:49;7.78;;;5.30;;
63342;SDS011;49465;57.664;39.686;2023-08-30T09:44:29;5.65;;;4.38;;
63342;SDS011;49465;57.664;39.686;2023-08-30T09:47:02;5.13;;;3.88;;
63342;SDS011;49465;57.664;39.686;2023-08-30T09:49:55;5.57;;;3.65;;
63342;SDS011;49465;57.664;39.686;2023-08-30T09:52:24;4.32;;;3.30;;
63342;SDS011;49465;57.664;39.686;2023-08-30T09:55:01;3.72;;;3.33;;
63342;SDS011;49465;57.664;39.686;2023-08-30T09:57:45;4.38;;;3.22;;
63342;SDS011;49465;57.664;39.686;2023-08-30T10:00:19;5.05;;;3.65;;
63342;SDS011;49465;57.664;39.686;2023-08-30T10:02:49;5.90;;;4.20;;
63342;SDS011;49465;57.664;39.686;2023-08-30T10:05:16;7.40;;;5.20;;
63342;SDS011;49465;57.664;39.686;2023-08-30T10:07:48;8.40;;;5.35;;
63342;SDS011;49465;57.664;39.686;2023-08-30T10:10:23;8.23;;;5.90;;
63342;SDS011;49465;57.664;39.686;2023-08-30T10:13:06;6.80;;;4.57;;
63342;SDS011;49465;57.664;39.686;2023-08-30T10:15:41;5.60;;;3.92;;
63342;SDS011;49465;57.664;39.686;2023-08-30T10:18:12;5.47;;;3.70;;
63342;SDS011;49465;57.664;39.686;2023-08-30T10:21:11;6.78;;;3.03;;
63342;SDS011;49465;57.664;39.686;2023-08-30T10:23:47;4.78;;;3.13;;
63342;SDS011;49465;57.664;39.686;2023-08-30T10:26:26;4.50;;;3.40;;
63342;SDS011;49465;57.664;39.686;2023-08-30T10:29:03;5.30;;;3.70;;
63342;SDS011;49465;57.664;39.686;2023-08-30T10:31:35;5.97;;;3.60;;
63342;SDS011;49465;57.664;39.686;2023-08-30T10:34:18;4.50;;;3.83;;
63342;SDS011;49465;57.664;39.686;2023-08-30T10:36:56;4.82;;;3.78;;
63342;SDS011;49465;57.664;39.686;2023-08-30T10:39:41;4.28;;;3.40;;
63342;SDS011;49465;57.664;39.686;2023-08-30T10:42:24;5.68;;;3.72;;
63342;SDS011;49465;57.664;39.686;2023-08-30T10:44:56;4.82;;;3.90;;
63342;SDS011;49465;57.664;39.686;2023-08-30T10:47:31;8.05;;;3.95;;
63342;SDS011;49465;57.664;39.686;2023-08-30T10:50:07;5.65;;;4.53;;
63342;SDS011;49465;57.664;39.686;2023-08-30T10:52:58;6.22;;;4.28;;
63342;SDS011;49465;57.664;39.686;2023-08-30T10:55:33;4.53;;;3.90;;
63342;SDS011;49465;57.664;39.686;2023-08-30T10:58:07;4.82;;;3.75;;
63342;SDS011;49465;57.664;39.686;2023-08-30T11:00:42;4.53;;;3.50;;
63342;SDS011;49465;57.664;39.686;2023-08-30T11:03:23;6.25;;;3.45;;
63342;SDS011;49465;57.664;39.686;2023-08-30T11:05:54;4.60;;;3.45;;
63342;SDS011;49465;57.664;39.686;2023-08-30T11:08:29;4.82;;;3.60;;
63342;SDS011;49465;57.664;39.686;2023-08-30T11:11:10;5.50;;;3.30;;
63342;SDS011;49465;57.664;39.686;2023-08-30T11:13:39;4.30;;;3.60;;
63342;SDS011;49465;57.664;39.686;2023-08-30T11:16:20;4.70;;;3.70;;
63342;SDS011;49465;57.664;39.686;2023-08-30T11:18:55;3.78;;;3.35;;
63342;SDS011;49465;57.664;39.686;2023-08-30T11:21:26;3.63;;;3.10;;
63342;SDS011;49465;57.664;39.686;2023-08-30T11:23:58;3.22;;;2.92;;
63342;SDS011;49465;57.664;39.686;2023-08-30T11:26:31;5.20;;;3.58;;
63342;SDS011;49465;57.664;39.686;2023-08-30T11:29:09;4.28;;;3.22;;
63342;SDS011;49465;57.664;39.686;2023-08-30T11:31:38;4.20;;;3.33;;
63342;SDS011;49465;57.664;39.686;2023-08-30T11:34:13;5.13;;;3.30;;
63342;SDS011;49465;57.664;39.686;2023-08-30T11:36:53;4.68;;;3.63;;
63342;SDS011;49465;57.664;39.686;2023-08-30T11:39:31;4.15;;;3.25;;
63342;SDS011;49465;57.664;39.686;2023-08-30T11:42:03;4.85;;;3.63;;
63342;SDS011;49465;57.664;39.686;2023-08-30T11:44:39;5.72;;;3.92;;
63342;SDS011;49465;57.664;39.686;2023-08-30T11:47:17;4.57;;;3.60;;
63342;SDS011;49465;57.664;39.686;2023-08-30T11:49:52;4.28;;;3.40;;
63342;SDS011;49465;57.664;39.686;2023-08-30T11:52:27;5.32;;;3.78;;
63342;SDS011;49465;57.664;39.686;2023-08-30T11:55:02;4.15;;;3.20;;
63342;SDS011;49465;57.664;39.686;2023-08-30T11:57:35;4.38;;;3.35;;
63342;SDS011;49465;57.664;39.686;2023-08-30T12:00:10;6.22;;;3.40;;
63342;SDS011;49465;57.664;39.686;2023-08-30T12:02:51;5.63;;;3.28;;
63342;SDS011;49465;57.664;39.686;2023-08-30T12:05:20;4.88;;;3.20;;
63342;SDS011;49465;57.664;39.686;2023-08-30T12:07:50;5.35;;;3.15;;
63342;SDS011;49465;57.664;39.686;2023-08-30T12:10:24;6.53;;;3.50;;
63342;SDS011;49465;57.664;39.686;2023-08-30T12:13:00;6.57;;;3.75;;
63342;SDS011;49465;57.664;39.686;2023-08-30T12:15:34;5.80;;;4.18;;
63342;SDS011;49465;57.664;39.686;2023-08-30T12:18:09;4.30;;;3.70;;
63342;SDS011;49465;57.664;39.686;2023-08-30T12:23:37;4.43;;;3.60;;
63342;SDS011;49465;57.664;39.686;2023-08-30T12:26:09;4.13;;;3.60;;
63342;SDS011;49465;57.664;39.686;2023-08-30T12:28:42;6.03;;;3.70;;
63342;SDS011;49465;57.664;39.686;2023-08-30T12:31:19;5.30;;;3.55;;
63342;SDS011;49465;57.664;39.686;2023-08-30T12:33:55;3.95;;;3.28;;
63342;SDS011;49465;57.664;39.686;2023-08-30T12:36:30;4.37;;;3.40;;
63342;SDS011;49465;57.664;39.686;2023-08-30T12:39:11;3.88;;;3.25;;
63342;SDS011;49465;57.664;39.686;2023-08-30T12:41:49;7.05;;;3.40;;
63342;SDS011;49465;57.664;39.686;2023-08-30T12:44:20;6.88;;;3.50;;
63342;SDS011;49465;57.664;39.686;2023-08-30T12:46:52;5.88;;;3.63;;
63342;SDS011;49465;57.664;39.686;2023-08-30T12:49:26;6.03;;;3.25;;
63342;SDS011;49465;57.664;39.686;2023-08-30T12:51:58;4.25;;;3.25;;
63342;SDS011;49465;57.664;39.686;2023-08-30T12:54:24;4.15;;;3.25;;
63342;SDS011;49465;57.664;39.686;2023-08-30T12:56:58;4.75;;;3.35;;
63342;SDS011;49465;57.664;39.686;2023-08-30T12:59:31;4.43;;;3.40;;
63342;SDS011;49465;57.664;39.686;2023-08-30T13:02:05;4.28;;;3.40;;
63342;SDS011;49465;57.664;39.686;2023-08-30T13:04:39;3.65;;;3.30;;
63342;SDS011;49465;57.664;39.686;2023-08-30T13:07:07;4.47;;;3.70;;
63342;SDS011;49465;57.664;39.686;2023-08-30T13:09:39;5.32;;;3.38;;
63342;SDS011;49465;57.664;39.686;2023-08-30T13:12:12;3.25;;;2.95;;
63342;SDS011;49465;57.664;39.686;2023-08-30T13:14:47;3.92;;;3.05;;
63342;SDS011;49465;57.664;39.686;2023-08-30T13:17:18;3.20;;;2.72;;
63342;SDS011;49465;57.664;39.686;2023-08-30T13:19:50;3.35;;;2.97;;
63342;SDS011;49465;57.664;39.686;2023-08-30T13:22:17;5.53;;;3.22;;
63342;SDS011;49465;57.664;39.686;2023-08-30T13:24:45;3.72;;;3.03;;
63342;SDS011;49465;57.664;39.686;2023-08-30T13:27:21;4.22;;;3.00;;
63342;SDS011;49465;57.664;39.686;2023-08-30T13:29:55;4.32;;;2.90;;
63342;SDS011;49465;57.664;39.686;2023-08-30T13:32:39;4.45;;;3.30;;
63342;SDS011;49465;57.664;39.686;2023-08-30T13:35:13;4.20;;;3.70;;
63342;SDS011;49465;57.664;39.686;2023-08-30T13:37:41;9.13;;;3.70;;
63342;SDS011;49465;57.664;39.686;2023-08-30T13:40:23;4.50;;;3.47;;
63342;SDS011;49465;57.664;39.686;2023-08-30T13:42:55;5.22;;;3.42;;
63342;SDS011;49465;57.664;39.686;2023-08-30T13:45:24;3.92;;;2.83;;
63342;SDS011;49465;57.664;39.686;2023-08-30T13:47:56;5.80;;;3.53;;
63342;SDS011;49465;57.664;39.686;2023-08-30T13:50:26;3.95;;;3.40;;
63342;SDS011;49465;57.664;39.686;2023-08-30T13:53:11;5.30;;;3.28;;
63342;SDS011;49465;57.664;39.686;2023-08-30T13:55:44;6.22;;;3.53;;
63342;SDS011;49465;57.664;39.686;2023-08-30T13:58:20;3.85;;;3.10;;
63342;SDS011;49465;57.664;39.686;2023-08-30T14:00:54;5.03;;;3.45;;
63342;SDS011;49465;57.664;39.686;2023-08-30T14:03:29;4.63;;;3.40;;
63342;SDS011;49465;57.664;39.686;2023-08-30T14:06:03;4.65;;;3.30;;
63342;SDS011;49465;57.664;39.686;2023-08-30T14:08:42;5.63;;;3.45;;
63342;SDS011;49465;57.664;39.686;2023-08-30T14:11:09;3.63;;;3.33;;
63342;SDS011;49465;57.664;39.686;2023-08-30T14:13:41;5.28;;;3.30;;
63342;SDS011;49465;57.664;39.686;2023-08-30T14:16:19;4.43;;;3.30;;
63342;SDS011;49465;57.664;39.686;2023-08-30T14:18:48;3.22;;;2.92;;
63342;SDS011;49465;57.664;39.686;2023-08-30T14:21:17;6.97;;;3.08;;
63342;SDS011;49465;57.664;39.686;2023-08-30T14:24:02;4.00;;;3.45;;
63342;SDS011;49465;57.664;39.686;2023-08-30T14:26:29;6.35;;;3.40;;
63342;SDS011;49465;57.664;39.686;2023-08-30T14:29:04;5.65;;;3.30;;
63342;SDS011;49465;57.664;39.686;2023-08-30T14:31:41;4.60;;;3.20;;
63342;SDS011;49465;57.664;39.686;2023-08-30T14:34:10;4.93;;;3.42;;
63342;SDS011;49465;57.664;39.686;2023-08-30T14:36:39;7.60;;;3.28;;
63342;SDS011;49465;57.664;39.686;2023-08-30T14:39:08;4.63;;;3.33;;
63342;SDS011;49465;57.664;39.686;2023-08-30T14:41:40;3.95;;;3.53;;
63342;SDS011;49465;57.664;39.686;2023-08-30T14:44:16;6.07;;;3.45;;
63342;SDS011;49465;57.664;39.686;2023-08-30T14:46:53;4.30;;;3.28;;
63342;SDS011;49465;57.664;39.686;2023-08-30T14:49:23;3.95;;;3.42;;
63342;SDS011;49465;57.664;39.686;2023-08-30T14:51:52;4.95;;;3.45;;
63342;SDS011;49465;57.664;39.686;2023-08-30T14:54:18;4.05;;;3.05;;
63342;SDS011;49465;57.664;39.686;2023-08-30T14:56:50;6.70;;;3.58;;
63342;SDS011;49465;57.664;39.686;2023-08-30T14:59:22;4.80;;;4.13;;
63342;SDS011;49465;57.664;39.686;2023-08-30T15:01:54;7.00;;;3.95;;
63342;SDS011;49465;57.664;39.686;2023-08-30T15:04:24;6.43;;;4.18;;
63342;SDS011;49465;57.664;39.686;2023-08-30T15:06:53;6.20;;;4.10;;
63342;SDS011;49465;57.664;39.686;2023-08-30T15:09:22;8.93;;;4.18;;
63342;SDS011;49465;57.664;39.686;2023-08-30T15:11:48;7.55;;;4.25;;
63342;SDS011;49465;57.664;39.686;2023-08-30T15:14:17;4.65;;;3.75;;
63342;SDS011;49465;57.664;39.686;2023-08-30T15:16:45;8.90;;;3.75;;
63342;SDS011;49465;57.664;39.686;2023-08-30T15:19:12;6.43;;;3.92;;
63342;SDS011;49465;57.664;39.686;2023-08-30T15:21:41;7.63;;;4.05;;
63342;SDS011;49465;57.664;39.686;2023-08-30T15:24:08;5.90;;;3.65;;
63342;SDS011;49465;57.664;39.686;2023-08-30T15:26:34;3.65;;;3.28;;
63342;SDS011;49465;57.664;39.686;2023-08-30T15:29:03;6.20;;;3.85;;
63342;SDS011;49465;57.664;39.686;2023-08-30T15:31:32;4.38;;;3.53;;
63342;SDS011;49465;57.664;39.686;2023-08-30T15:34:07;6.57;;;4.00;;
63342;SDS011;49465;57.664;39.686;2023-08-30T15:36:36;6.10;;;4.13;;
63342;SDS011;49465;57.664;39.686;2023-08-30T15:39:08;5.65;;;3.80;;